Time;durP1;ratioP1;P1;durP2;ratioP2;P2;SDS_P1;SDS_P2;PMS_P1;PMS_P2;Temp;Humidity;BMP_temperature;BMP_pressure;BME280_temperature;BME280_humidity;BME280_pressure;Samples;Min_cycle;Max_cycle;Signal;HPM_P1;HPM_P2
2021/06/15 04:31:39;;;;;;;20.95;12.05;;;;;;;12.39;72.89;100333.63;5147359;27;20343;-68
2021/06/15 04:34:05;;;;;;;22.85;11.60;;;;;;;12.59;73.25;100333.13;5126573;27;20043;-74
2021/06/15 04:36:32;;;;;;;20.60;11.95;;;;;;;12.80;72.79;100325.28;5133594;27;39985;-69
2021/06/15 04:39:02;;;;;;;19.98;11.18;;;;;;;13.00;72.35;100335.47;5134749;27;20032;-71
2021/06/15 04:42:01;;;;;;;21.45;11.95;;;;;;;13.19;72.63;100336.78;5152429;27;20815;-70
2021/06/15 04:44:31;;;;;;;20.83;10.85;;;;;;;13.34;72.26;100329.56;5141235;27;20120;-78
2021/06/15 04:47:00;;;;;;;20.40;11.07;;;;;;;13.45;72.00;100344.38;5131553;27;20046;-72
2021/06/15 04:49:35;;;;;;;16.65;11.38;;;;;;;13.56;71.60;100340.41;5131163;27;20035;-71
2021/06/15 04:52:01;;;;;;;17.48;10.68;;;;;;;13.67;71.52;100344.44;5114974;27;20463;-70
2021/06/15 04:54:31;;;;;;;18.42;11.23;;;;;;;13.75;71.38;100349.69;5131370;27;20031;-78
2021/06/15 04:56:56;;;;;;;16.08;10.23;;;;;;;13.85;71.42;100338.69;5131180;27;20109;-71
2021/06/15 04:59:22;;;;;;;15.00;10.27;;;;;;;13.94;71.33;100344.75;5112953;27;33642;-71
2021/06/15 05:01:47;;;;;;;18.83;11.55;;;;;;;14.04;71.16;100339.94;5113427;27;28099;-72
2021/06/15 05:04:13;;;;;;;19.08;11.60;;;;;;;14.18;71.07;100344.38;5130471;27;36965;-70
2021/06/15 05:06:41;;;;;;;18.65;11.45;;;;;;;14.35;71.27;100344.16;5130650;27;20495;-72
2021/06/15 05:09:07;;;;;;;15.98;10.48;;;;;;;14.48;69.84;100355.00;5114127;27;20031;-73
2021/06/15 05:11:34;;;;;;;16.52;10.70;;;;;;;14.59;70.76;100344.78;5130619;27;20032;-75
2021/06/15 05:13:59;;;;;;;17.73;9.63;;;;;;;14.71;70.32;100351.31;5130647;27;20333;-74
2021/06/15 05:16:25;;;;;;;18.33;10.95;;;;;;;14.81;70.10;100350.97;5131596;27;20026;-75
2021/06/15 05:18:50;;;;;;;18.70;9.82;;;;;;;14.93;70.32;100348.63;5112571;27;20024;-75
2021/06/15 05:21:19;;;;;;;14.23;10.48;;;;;;;15.06;70.25;100356.72;5111524;27;20782;-77
2021/06/15 05:23:46;;;;;;;14.20;9.32;;;;;;;15.19;69.78;100345.28;5128594;27;20538;-73
2021/06/15 05:26:12;;;;;;;13.40;9.30;;;;;;;15.32;69.89;100349.88;5113297;27;20024;-75
2021/06/15 05:28:38;;;;;;;13.13;8.98;;;;;;;15.47;69.56;100347.88;5130587;27;20507;-69
2021/06/15 05:31:03;;;;;;;13.43;8.60;;;;;;;15.61;69.35;100343.44;5131591;27;20040;-69
2021/06/15 05:33:28;;;;;;;14.63;9.15;;;;;;;15.80;69.34;100344.59;5130632;27;20028;-73
2021/06/15 05:35:54;;;;;;;16.67;9.35;;;;;;;15.98;69.32;100332.44;5130941;27;32532;-71
2021/06/15 05:38:19;;;;;;;17.45;10.00;;;;;;;16.12;69.03;100342.19;5131179;27;20028;-71
2021/06/15 05:40:45;;;;;;;18.30;10.27;;;;;;;16.27;68.64;100343.88;5129938;27;20046;-71
2021/06/15 05:43:11;;;;;;;14.90;9.15;;;;;;;16.35;68.38;100349.06;5115883;27;20025;-74
2021/06/15 05:45:36;;;;;;;16.70;9.60;;;;;;;16.51;68.38;100345.13;5116779;27;20028;-72
2021/06/15 05:48:02;;;;;;;14.88;9.35;;;;;;;16.70;68.06;100348.88;5117490;27;20038;-73
2021/06/15 05:50:27;;;;;;;17.77;10.95;;;;;;;16.88;67.67;100348.25;5117400;27;20032;-70
2021/06/15 05:52:52;;;;;;;14.93;8.85;;;;;;;17.00;67.50;100356.56;5117970;27;20032;-77
2021/06/15 05:55:19;;;;;;;16.27;9.75;;;;;;;17.07;66.50;100358.22;5115899;28;28820;-78
2021/06/15 05:57:44;;;;;;;25.23;15.60;;;;;;;17.18;66.36;100354.06;5082396;28;20112;-80
2021/06/15 06:00:10;;;;;;;15.80;7.55;;;;;;;17.31;66.61;100355.88;5117759;27;31582;-77
2021/06/15 06:02:35;;;;;;;20.00;9.48;;;;;;;17.45;66.74;100359.38;5118116;27;20113;-76
2021/06/15 06:10:11;;;;;;;36.25;19.52;;;;;;;17.88;64.70;100348.03;5115824;28;20048;-75
2021/06/15 06:12:36;;;;;;;19.08;10.82;;;;;;;17.99;64.93;100353.78;5115354;28;20047;-72
2021/06/15 06:15:02;;;;;;;18.92;10.30;;;;;;;18.18;65.05;100352.88;5116909;28;20411;-72
2021/06/15 06:17:27;;;;;;;14.93;9.73;;;;;;;18.36;64.66;100359.41;5116508;27;20031;-69
2021/06/15 06:19:53;;;;;;;25.27;16.85;;;;;;;18.50;64.33;100363.66;5116305;27;26222;-68
2021/06/15 06:22:19;;;;;;;15.98;8.70;;;;;;;18.69;64.15;100358.34;5117159;27;20035;-72
2021/06/15 06:24:44;;;;;;;13.02;7.78;;;;;;;18.86;63.86;100356.75;5117702;28;20489;-79
2021/06/15 06:27:10;;;;;;;15.25;7.20;;;;;;;18.97;62.57;100357.09;5095247;28;20485;-71
2021/06/15 06:29:35;;;;;;;18.10;8.00;;;;;;;19.12;63.07;100362.97;5095950;28;20047;-68
2021/06/15 06:32:02;;;;;;;10.70;7.22;;;;;;;19.27;62.73;100366.16;5096193;28;31318;-70
2021/06/15 06:34:27;;;;;;;21.60;16.67;;;;;;;19.45;62.30;100370.72;5096339;28;20055;-72
2021/06/15 06:36:53;;;;;;;21.38;13.05;;;;;;;19.64;61.95;100368.00;5110064;28;31999;-67
2021/06/15 06:39:18;;;;;;;14.63;8.02;;;;;;;19.80;61.44;100369.31;5116467;27;28444;-68
2021/06/15 06:41:43;;;;;;;13.07;7.70;;;;;;;19.97;61.02;100371.41;5116789;27;20472;-68
2021/06/15 06:44:09;;;;;;;18.17;7.22;;;;;;;20.08;60.49;100370.63;5116734;27;20032;-67
2021/06/15 06:46:34;;;;;;;14.23;7.13;;;;;;;20.16;60.23;100367.63;5116040;27;32049;-70
2021/06/15 06:49:00;;;;;;;10.50;7.30;;;;;;;20.22;59.34;100372.09;5115265;28;20150;-71
2021/06/15 06:51:25;;;;;;;18.35;7.10;;;;;;;20.34;59.52;100379.41;5098018;28;20035;-70
2021/06/15 06:53:52;;;;;;;15.95;7.57;;;;;;;20.47;59.07;100371.09;5113993;27;20115;-68
2021/06/15 06:56:17;;;;;;;12.35;9.20;;;;;;;20.65;59.07;100367.50;5115977;27;20032;-70
2021/06/15 06:58:44;;;;;;;12.48;6.75;;;;;;;20.74;58.16;100363.41;5114734;28;22489;-69
2021/06/15 07:01:10;;;;;;;9.20;5.47;;;;;;;20.95;58.48;100369.31;5116165;27;20028;-72
2021/06/15 07:03:35;;;;;;;14.02;6.55;;;;;;;21.20;58.46;100360.97;5115396;28;33623;-69
2021/06/15 07:06:01;;;;;;;14.82;7.40;;;;;;;21.45;57.64;100357.19;5115583;27;20097;-70
2021/06/15 07:08:26;;;;;;;18.92;7.22;;;;;;;21.60;57.53;100365.66;5115422;27;38572;-67
2021/06/15 07:10:51;;;;;;;12.50;7.78;;;;;;;21.82;56.83;100359.59;5114911;28;20039;-68
2021/06/15 07:13:17;;;;;;;12.77;7.20;;;;;;;21.89;55.91;100354.84;5114213;28;34155;-67
2021/06/15 07:15:42;;;;;;;13.98;6.95;;;;;;;21.96;55.80;100365.53;5114389;28;36745;-70
2021/06/15 07:18:07;;;;;;;12.07;6.38;;;;;;;22.15;55.94;100363.47;5114961;27;38335;-69
2021/06/15 07:20:33;;;;;;;13.40;7.10;;;;;;;22.38;55.69;100364.47;5114364;28;33325;-69
2021/06/15 07:22:58;;;;;;;15.70;7.03;;;;;;;22.54;54.65;100369.06;5115213;27;35558;-71
2021/06/15 07:25:24;;;;;;;11.50;6.60;;;;;;;22.63;54.26;100366.78;5116045;27;22676;-70
2021/06/15 07:27:49;;;;;;;10.77;6.32;;;;;;;22.86;54.43;100360.34;5115810;27;20024;-71
2021/06/15 07:30:15;;;;;;;12.48;7.35;;;;;;;23.02;53.63;100366.84;5114333;28;20488;-70
2021/06/15 07:32:41;;;;;;;20.23;9.60;;;;;;;23.05;53.09;100366.34;5114423;28;20033;-69
2021/06/15 07:35:07;;;;;;;12.30;5.95;;;;;;;23.26;53.27;100362.03;5115920;27;20040;-73
2021/06/15 07:37:32;;;;;;;9.65;5.68;;;;;;;23.41;52.69;100366.06;5114692;28;20523;-67
2021/06/15 07:39:58;;;;;;;9.70;5.88;;;;;;;23.58;52.61;100366.81;5113747;28;30707;-72
2021/06/15 07:42:25;;;;;;;9.95;5.75;;;;;;;23.82;52.27;100363.84;5115805;28;20040;-74
2021/06/15 07:44:51;;;;;;;10.15;5.47;;;;;;;24.06;52.15;100361.69;5115347;27;20556;-69
2021/06/15 07:47:16;;;;;;;9.98;6.35;;;;;;;24.32;51.43;100367.41;5114840;28;20074;-71
2021/06/15 07:49:41;;;;;;;9.23;5.35;;;;;;;24.45;50.17;100372.44;5113716;28;31042;-68
2021/06/15 07:52:07;;;;;;;10.20;5.40;;;;;;;24.63;49.87;100371.25;5115086;28;34557;-69
2021/06/15 07:54:32;;;;;;;12.48;5.65;;;;;;;24.77;49.43;100360.72;5115502;27;20379;-67
2021/06/15 07:56:57;;;;;;;10.55;5.30;;;;;;;24.72;48.68;100360.69;5115236;27;34674;-68
2021/06/15 07:59:23;;;;;;;10.57;5.22;;;;;;;24.93;49.08;100366.28;5115548;27;26504;-70
2021/06/15 08:01:48;;;;;;;20.00;14.45;;;;;;;25.15;48.62;100360.69;5114484;28;20036;-71
2021/06/15 08:04:15;;;;;;;16.55;7.43;;;;;;;25.31;48.29;100367.88;5114909;27;35140;-67
2021/06/15 08:06:41;;;;;;;10.73;5.93;;;;;;;25.42;46.43;100360.59;5115074;27;20035;-67
2021/06/15 08:09:06;;;;;;;9.05;5.55;;;;;;;25.27;46.77;100363.22;5115490;27;20031;-65
2021/06/15 08:11:32;;;;;;;14.57;9.07;;;;;;;25.18;46.15;100365.66;5113349;28;36597;-66
2021/06/15 08:13:57;;;;;;;14.05;9.18;;;;;;;25.23;46.58;100364.84;5114669;27;37263;-68
2021/06/15 08:16:23;;;;;;;9.68;5.30;;;;;;;25.35;46.38;100368.22;5114729;27;32848;-68
2021/06/15 08:18:48;;;;;;;9.63;4.65;;;;;;;25.37;45.53;100367.94;5114127;28;20028;-68
2021/06/15 08:21:13;;;;;;;13.98;6.25;;;;;;;25.26;44.00;100373.31;5114009;28;32020;-67
2021/06/15 08:23:39;;;;;;;7.82;5.55;;;;;;;25.00;44.22;100375.88;5115219;28;20024;-68
2021/06/15 08:26:04;;;;;;;12.88;5.25;;;;;;;25.06;45.17;100378.66;5114864;27;20028;-65
2021/06/15 08:28:30;;;;;;;10.65;5.80;;;;;;;25.34;45.48;100364.66;5114218;27;36325;-66
2021/06/15 08:30:55;;;;;;;13.38;5.70;;;;;;;25.66;45.73;100369.16;5114841;27;20106;-66
2021/06/15 08:33:21;;;;;;;12.27;5.80;;;;;;;25.93;44.66;100370.91;5115017;27;20487;-67
2021/06/15 08:35:46;;;;;;;12.75;5.43;;;;;;;25.92;44.06;100371.19;5115197;27;20483;-66
2021/06/15 08:38:12;;;;;;;10.40;5.55;;;;;;;25.65;42.51;100370.25;5115044;27;20024;-64
2021/06/15 08:40:37;;;;;;;13.23;5.35;;;;;;;25.47;43.29;100362.56;5115146;28;20147;-68
2021/06/15 08:43:02;;;;;;;12.23;10.95;;;;;;;25.70;44.42;100365.91;5114713;27;22608;-68
2021/06/15 08:45:28;;;;;;;8.93;5.47;;;;;;;25.98;43.73;100357.25;5113153;27;27712;-71
2021/06/15 08:47:54;;;;;;;10.90;5.38;;;;;;;25.98;42.37;100359.19;5114748;27;20028;-69
2021/06/15 08:50:21;;;;;;;12.50;5.18;;;;;;;26.06;42.35;100357.88;5114552;27;20040;-69
2021/06/15 08:52:47;;;;;;;11.35;5.60;;;;;;;25.98;41.29;100359.97;5114698;27;20024;-70
2021/06/15 08:55:13;;;;;;;7.35;4.82;;;;;;;26.00;42.53;100349.63;5114928;27;20032;-69
2021/06/15 08:57:39;;;;;;;10.82;4.97;;;;;;;26.41;42.82;100351.63;5114632;27;20511;-71
2021/06/15 09:00:09;;;;;;;7.10;5.07;;;;;;;26.62;41.72;100357.09;5113570;28;20032;-72
2021/06/15 09:02:45;;;;;;;8.82;5.28;;;;;;;26.69;41.65;100352.97;5114925;27;20037;-77
2021/06/15 09:05:11;;;;;;;15.95;6.32;;;;;;;27.01;42.13;100357.38;5113517;27;20032;-77
2021/06/15 09:08:02;;;;;;;9.88;5.47;;;;;;;27.44;41.45;100364.41;5114916;27;20028;-75
2021/06/15 09:10:31;;;;;;;10.95;4.75;;;;;;;27.38;40.03;100360.03;5114770;28;20126;-73
2021/06/15 09:12:57;;;;;;;7.95;5.05;;;;;;;27.38;39.56;100355.38;5096341;28;20526;-68
2021/06/15 09:15:23;;;;;;;9.68;5.22;;;;;;;27.33;39.65;100353.44;5114798;27;20031;-69
2021/06/15 09:17:48;;;;;;;19.30;14.13;;;;;;;27.53;40.11;100347.13;5117121;27;20554;-74
2021/06/15 09:20:21;;;;;;;13.57;6.75;;;;;;;27.98;41.12;100347.16;5117060;28;20150;-72
2021/06/15 09:22:56;;;;;;;10.50;6.10;;;;;;;28.62;40.22;100355.47;5117054;28;20033;-76
2021/06/15 09:25:22;;;;;;;14.18;5.68;;;;;;;28.79;39.83;100348.81;5118145;27;20716;-70
2021/06/15 09:27:48;;;;;;;8.95;4.97;;;;;;;29.11;38.51;100341.88;5099993;28;20506;-70
2021/06/15 09:30:14;;;;;;;12.63;6.78;;;;;;;29.21;38.96;100336.28;5116484;28;20052;-79
2021/06/15 09:32:41;;;;;;;9.63;5.78;;;;;;;29.41;38.51;100337.19;5116818;28;20111;-74
2021/06/15 09:35:16;;;;;;;9.60;5.30;;;;;;;29.17;36.69;100344.28;5116740;28;20031;-72
2021/06/15 09:37:43;;;;;;;10.30;4.95;;;;;;;29.14;37.22;100338.56;5117158;28;20503;-71
2021/06/15 09:40:10;;;;;;;8.63;5.40;;;;;;;29.48;38.34;100345.88;5116551;28;20484;-74
2021/06/15 09:43:09;;;;;;;8.60;4.38;;;;;;;29.63;36.14;100340.19;5118011;27;20112;-80
2021/06/15 09:45:40;;;;;;;10.27;5.35;;;;;;;29.58;36.21;100334.78;5093991;27;20093;-75
2021/06/15 09:48:38;;;;;;;10.20;4.60;;;;;;;29.65;36.06;100337.13;5117854;27;20911;-76
2021/06/15 09:51:04;;;;;;;11.57;5.43;;;;;;;29.95;36.47;100335.09;5117269;28;20028;-73
2021/06/15 09:53:33;;;;;;;9.02;5.32;;;;;;;30.17;36.16;100342.75;5117919;27;20024;-72
2021/06/15 09:56:00;;;;;;;9.00;4.97;;;;;;;30.28;35.11;100335.16;5116068;28;20099;-76
2021/06/15 09:58:47;;;;;;;13.15;4.80;;;;;;;30.07;34.92;100331.91;5117825;27;20032;-70
2021/06/15 10:01:38;;;;;;;10.20;4.60;;;;;;;30.29;35.25;100339.53;5117252;28;20115;-70
2021/06/15 10:04:16;;;;;;;8.57;4.65;;;;;;;30.42;34.78;100321.50;5117184;28;20125;-71
2021/06/15 10:06:52;;;;;;;10.80;5.03;;;;;;;30.57;34.69;100328.69;5115610;28;20501;-70
2021/06/15 10:09:28;;;;;;;17.42;4.65;;;;;;;30.75;34.40;100338.78;5116057;28;20028;-70
2021/06/15 10:11:57;;;;;;;11.98;4.60;;;;;;;30.89;33.88;100336.88;5116845;28;20999;-67
2021/06/15 10:14:22;;;;;;;6.88;4.15;;;;;;;31.08;33.41;100324.19;5116842;27;20032;-71
2021/06/15 10:16:48;;;;;;;6.43;4.20;;;;;;;31.24;33.58;100327.47;5117189;27;20024;-72
2021/06/15 10:19:14;;;;;;;7.88;4.03;;;;;;;31.26;32.31;100334.28;5099099;28;20020;-71
2021/06/15 10:21:39;;;;;;;11.35;4.25;;;;;;;30.89;31.02;100333.31;5115693;28;20086;-70
2021/06/15 10:24:06;;;;;;;7.82;4.57;;;;;;;30.37;30.39;100325.13;5116069;27;36065;-69
2021/06/15 10:26:32;;;;;;;7.93;4.13;;;;;;;29.68;30.30;100318.16;5117027;27;20066;-68
2021/06/15 10:28:57;;;;;;;7.20;4.00;;;;;;;29.52;32.12;100322.22;5115418;28;20419;-68
2021/06/15 10:31:30;;;;;;;8.00;4.20;;;;;;;29.78;32.67;100316.38;5115421;28;22303;-69
2021/06/15 10:33:55;;;;;;;7.53;3.92;;;;;;;30.05;32.24;100313.81;5115516;28;20532;-68
2021/06/15 10:36:47;;;;;;;8.63;3.97;;;;;;;30.18;31.74;100322.41;5114639;28;39544;-68
2021/06/15 10:39:38;;;;;;;8.63;4.50;;;;;;;29.99;31.15;100312.25;5111602;27;20047;-68
2021/06/15 10:42:14;;;;;;;7.65;3.67;;;;;;;29.59;30.57;100317.19;5115261;28;20064;-67
2021/06/15 10:44:40;;;;;;;10.98;4.53;;;;;;;29.56;31.38;100311.47;5116628;27;20060;-69
2021/06/15 10:47:09;;;;;;;5.88;3.75;;;;;;;29.67;31.57;100304.72;5115765;28;20024;-69
2021/06/15 10:49:57;;;;;;;5.68;4.00;;;;;;;29.96;31.67;100292.81;5116276;27;20028;-68
2021/06/15 10:52:26;;;;;;;6.90;4.03;;;;;;;29.94;30.68;100295.84;5114908;28;20050;-71
2021/06/15 10:54:51;;;;;;;9.35;4.10;;;;;;;29.73;30.60;100300.81;5115220;28;20543;-71
2021/06/15 10:57:16;;;;;;;7.25;3.88;;;;;;;29.67;31.14;100289.06;5116126;27;24598;-72
2021/06/15 11:00:07;;;;;;;11.00;4.18;;;;;;;29.80;31.52;100306.75;5116367;28;20020;-73
2021/06/15 11:02:32;;;;;;;7.57;4.03;;;;;;;30.05;31.69;100300.06;5116982;28;20039;-73
2021/06/15 11:05:35;;;;;;;10.70;3.70;;;;;;;30.41;31.69;100298.66;5116648;27;20491;-71
2021/06/15 11:08:23;;;;;;;16.27;9.10;;;;;;;30.70;31.27;100297.63;5114735;28;20032;-71
2021/06/15 11:11:18;;;;;;;9.70;4.25;;;;;;;30.82;31.22;100281.44;5116383;27;20036;-69
2021/06/15 11:13:50;;;;;;;7.95;4.10;;;;;;;31.05;30.44;100292.59;5114731;28;20044;-68
2021/06/15 11:16:31;;;;;;;8.20;4.28;;;;;;;30.77;29.53;100280.75;5116411;27;20055;-67
2021/06/15 11:19:12;;;;;;;7.50;4.03;;;;;;;30.63;29.66;100284.28;5116437;27;20064;-65
2021/06/15 11:22:06;;;;;;;6.22;3.55;;;;;;;30.27;28.53;100278.59;5115759;27;20036;-73
2021/06/15 11:24:48;;;;;;;10.85;5.80;;;;;;;30.02;29.58;100275.94;5108477;28;20849;-71
2021/06/15 11:27:34;;;;;;;12.05;3.75;;;;;;;30.00;29.57;100272.69;5115987;28;20093;-71
2021/06/15 11:30:11;;;;;;;10.48;4.10;;;;;;;30.13;29.69;100273.06;5115142;28;20044;-75
2021/06/15 11:32:37;;;;;;;10.07;4.15;;;;;;;30.00;29.29;100275.41;5115993;27;20787;-69
2021/06/15 11:35:03;;;;;;;7.40;4.45;;;;;;;30.00;29.84;100272.69;5113399;28;36247;-69
2021/06/15 11:37:37;;;;;;;7.15;3.95;;;;;;;30.08;29.24;100278.63;5113923;28;20090;-69
2021/06/15 11:40:19;;;;;;;8.35;3.78;;;;;;;30.02;29.71;100264.97;5115058;27;20036;-68
2021/06/15 11:42:48;;;;;;;8.40;4.35;;;;;;;30.26;30.18;100264.03;5115711;27;20060;-73
2021/06/15 11:45:22;;;;;;;6.87;4.60;;;;;;;30.59;30.35;100265.97;5115754;28;20036;-69
2021/06/15 11:47:55;;;;;;;7.50;3.92;;;;;;;30.90;30.18;100263.44;5115439;27;20242;-74
2021/06/15 11:50:27;;;;;;;9.27;3.75;;;;;;;31.01;29.66;100262.09;5115774;27;20026;-72
2021/06/15 11:53:01;;;;;;;15.32;12.32;;;;;;;31.01;29.34;100253.84;5114652;28;20473;-74
2021/06/15 11:55:50;;;;;;;8.60;3.75;;;;;;;30.85;28.58;100252.53;5114810;28;20090;-71
2021/06/15 11:58:17;;;;;;;10.88;3.42;;;;;;;30.77;28.85;100254.06;5114296;28;20028;-72
2021/06/15 12:00:44;;;;;;;11.32;3.72;;;;;;;30.77;28.84;100256.00;5114478;28;20459;-74
2021/06/15 12:03:14;;;;;;;9.00;4.03;;;;;;;30.73;28.76;100244.81;5114401;28;20093;-80
2021/06/15 12:05:41;;;;;;;10.00;4.30;;;;;;;30.80;29.00;100245.22;5115486;27;20036;-73
2021/06/15 12:08:06;;;;;;;9.35;4.38;;;;;;;30.80;28.70;100244.41;5114208;28;20056;-73
2021/06/15 12:10:32;;;;;;;7.82;4.25;;;;;;;30.88;28.88;100238.19;5115287;27;20039;-71
2021/06/15 12:13:35;;;;;;;6.32;3.70;;;;;;;30.94;28.44;100236.97;5115834;27;20020;-68
2021/06/15 12:16:09;;;;;;;10.43;4.07;;;;;;;30.78;28.29;100232.88;5071945;28;20037;-68
2021/06/15 12:18:36;;;;;;;10.50;3.55;;;;;;;30.77;28.60;100217.50;5108629;28;20045;-69
2021/06/15 12:21:04;;;;;;;6.57;3.63;;;;;;;30.83;28.67;100216.28;5115101;27;20032;-67
2021/06/15 12:23:29;;;;;;;9.27;4.00;;;;;;;30.86;28.08;100216.47;5115066;27;20029;-67
2021/06/15 12:26:03;;;;;;;6.00;3.88;;;;;;;30.59;27.60;100217.28;5114369;27;20028;-68
2021/06/15 12:28:28;;;;;;;8.45;3.92;;;;;;;30.23;27.85;100217.94;5114839;27;20052;-68
2021/06/15 12:31:12;;;;;;;9.35;3.92;;;;;;;30.25;28.82;100212.97;5113764;27;35844;-67
2021/06/15 12:33:40;;;;;;;8.57;3.72;;;;;;;30.23;27.90;100220.69;5115003;28;20185;-69
2021/06/15 12:36:08;;;;;;;14.13;4.35;;;;;;;30.02;28.13;100215.53;5095832;28;20036;-68
2021/06/15 12:38:33;;;;;;;9.40;4.45;;;;;;;30.20;28.82;100224.03;5114473;27;20032;-68
2021/06/15 12:40:59;;;;;;;11.82;4.07;;;;;;;30.34;29.05;100213.88;5114297;27;20463;-67
2021/06/15 12:43:27;;;;;;;6.55;3.53;;;;;;;30.30;28.32;100223.03;5114963;27;20178;-65
2021/06/15 12:46:06;;;;;;;9.87;4.70;;;;;;;30.02;27.79;100220.22;5114593;28;21343;-65
2021/06/15 12:48:31;;;;;;;8.02;3.97;;;;;;;29.82;28.20;100216.66;5114799;27;20024;-62
2021/06/15 12:51:04;;;;;;;7.95;4.47;;;;;;;30.00;29.21;100212.25;5113999;27;26061;-65
2021/06/15 12:53:32;;;;;;;7.28;3.97;;;;;;;30.37;29.85;100202.28;5118649;27;20123;-66
2021/06/15 12:55:57;;;;;;;8.90;4.53;;;;;;;30.76;29.24;100205.69;5118186;28;20040;-67
2021/06/15 12:58:27;;;;;;;14.27;4.38;;;;;;;30.68;28.30;100209.97;5117275;27;40083;-67
2021/06/15 13:00:52;;;;;;;7.75;4.85;;;;;;;30.51;27.99;100201.50;5118048;27;20032;-66
2021/06/15 13:03:18;;;;;;;10.35;4.90;;;;;;;30.42;28.02;100200.56;5117391;27;34503;-66
2021/06/15 13:05:43;;;;;;;6.57;3.90;;;;;;;30.33;28.34;100206.75;5117046;27;40166;-65
2021/06/15 13:08:08;;;;;;;9.48;3.70;;;;;;;30.18;28.32;100207.03;5117789;27;20077;-66
2021/06/15 13:10:34;;;;;;;7.93;3.90;;;;;;;30.05;28.72;100209.44;5118513;27;20020;-67
2021/06/15 13:13:02;;;;;;;9.98;4.38;;;;;;;30.18;29.37;100204.28;5098870;28;20032;-70
2021/06/15 13:15:29;;;;;;;6.10;3.55;;;;;;;30.12;28.65;100205.50;5116821;27;20028;-67
2021/06/15 13:17:58;;;;;;;6.68;3.80;;;;;;;29.83;28.84;100207.31;5112662;28;20130;-67
2021/06/15 13:20:24;;;;;;;11.07;3.75;;;;;;;29.86;29.02;100195.75;5112473;27;20035;-64
2021/06/15 13:22:49;;;;;;;9.27;3.95;;;;;;;30.18;29.89;100201.53;5115927;27;20032;-67
2021/06/15 13:25:20;;;;;;;9.30;4.10;;;;;;;30.23;29.31;100198.69;5116305;27;20077;-68
2021/06/15 13:27:50;;;;;;;7.30;4.18;;;;;;;30.16;28.88;100192.78;5116258;27;20039;-68
2021/06/15 13:30:17;;;;;;;7.45;4.47;;;;;;;30.02;29.09;100193.56;5114050;28;20687;-69
2021/06/15 13:32:43;;;;;;;8.90;3.92;;;;;;;29.86;28.99;100192.19;5115523;27;20048;-67
2021/06/15 13:35:22;;;;;;;6.97;3.58;;;;;;;29.91;29.75;100192.13;5116504;27;20028;-71
2021/06/15 13:37:58;;;;;;;8.15;4.20;;;;;;;29.94;29.21;100186.00;5099612;28;20515;-68
2021/06/15 13:40:35;;;;;;;7.07;3.90;;;;;;;29.73;28.65;100190.19;5097829;28;20539;-71
2021/06/15 13:43:03;;;;;;;7.97;5.88;;;;;;;29.69;29.67;100187.22;5114431;28;20032;-68
2021/06/15 13:45:33;;;;;;;10.90;4.18;;;;;;;29.71;29.38;100187.72;5115444;27;20032;-73
2021/06/15 13:47:58;;;;;;;8.68;3.70;;;;;;;29.86;30.29;100178.47;5114147;28;20036;-70
2021/06/15 13:50:24;;;;;;;7.32;3.70;;;;;;;30.12;29.91;100197.25;5113972;28;37543;-75
2021/06/15 13:52:49;;;;;;;9.48;4.13;;;;;;;30.04;29.09;100185.84;5116208;27;20040;-70
2021/06/15 13:55:15;;;;;;;8.32;4.38;;;;;;;29.94;28.98;100190.69;5112390;28;20024;-69
2021/06/15 13:57:40;;;;;;;10.85;4.32;;;;;;;29.84;29.31;100188.88;5098454;28;20120;-68
2021/06/15 14:00:10;;;;;;;10.13;4.20;;;;;;;29.76;29.09;100184.06;5093621;28;39460;-67
2021/06/15 14:02:35;;;;;;;7.47;3.85;;;;;;;29.50;29.12;100182.56;5094759;28;20113;-67
2021/06/15 14:05:01;;;;;;;7.88;4.28;;;;;;;29.50;29.78;100181.75;5095733;28;20051;-70
2021/06/15 14:07:26;;;;;;;8.60;4.28;;;;;;;29.58;29.56;100192.06;5109835;28;20032;-68
2021/06/15 14:09:52;;;;;;;8.73;3.95;;;;;;;29.67;29.60;100182.00;5094868;28;20033;-68
2021/06/15 14:12:17;;;;;;;9.48;3.92;;;;;;;29.67;29.23;100182.00;5087352;28;20025;-67
2021/06/15 14:14:43;;;;;;;10.52;4.10;;;;;;;29.46;29.08;100180.72;5094971;28;27379;-68
2021/06/15 14:17:09;;;;;;;8.10;4.13;;;;;;;29.39;29.52;100178.34;5095696;28;20040;-73
2021/06/15 14:19:35;;;;;;;7.97;4.00;;;;;;;29.26;29.35;100179.88;5078134;28;20035;-72
2021/06/15 14:22:00;;;;;;;9.60;4.22;;;;;;;29.00;29.10;100174.72;5095565;28;20410;-68
2021/06/15 14:24:26;;;;;;;8.35;4.07;;;;;;;28.87;29.87;100164.50;5092719;28;20082;-69
2021/06/15 14:26:51;;;;;;;8.15;4.30;;;;;;;28.87;29.75;100169.97;5093329;28;26302;-68
2021/06/15 14:29:17;;;;;;;10.45;4.22;;;;;;;28.90;29.96;100163.91;5092804;28;20029;-69
2021/06/15 14:31:42;;;;;;;10.05;4.38;;;;;;;28.85;29.69;100166.69;5093351;28;20032;-69
2021/06/15 14:34:08;;;;;;;9.68;4.20;;;;;;;28.57;29.81;100160.97;5091924;28;20535;-68
2021/06/15 14:36:33;;;;;;;10.60;4.30;;;;;;;28.36;30.00;100165.84;5093220;28;35004;-69
2021/06/15 14:39:01;;;;;;;9.55;4.47;;;;;;;28.24;30.11;100174.47;5093611;28;20381;-68
2021/06/15 14:41:26;;;;;;;7.63;3.72;;;;;;;28.18;30.56;100176.44;5070077;28;20029;-68
2021/06/15 14:43:52;;;;;;;8.38;3.63;;;;;;;28.20;30.88;100178.91;5094486;28;36087;-68
2021/06/15 14:46:17;;;;;;;8.90;3.60;;;;;;;28.29;30.77;100181.81;5095938;28;20055;-68
2021/06/15 14:48:43;;;;;;;9.85;4.22;;;;;;;28.40;31.35;100171.56;5095019;28;36737;-68
2021/06/15 14:51:08;;;;;;;6.75;3.65;;;;;;;28.52;31.16;100174.72;5095432;28;34079;-68
2021/06/15 14:53:33;;;;;;;7.57;4.10;;;;;;;28.65;31.50;100171.31;5096206;28;20035;-68
2021/06/15 14:55:59;;;;;;;7.10;3.45;;;;;;;28.81;31.60;100171.13;5095592;28;20090;-68
2021/06/15 14:58:24;;;;;;;8.30;3.78;;;;;;;28.88;31.33;100166.09;5093956;28;28085;-68
2021/06/15 15:00:51;;;;;;;7.47;3.92;;;;;;;29.02;31.15;100172.50;5096280;28;20354;-68
2021/06/15 15:03:16;;;;;;;16.83;3.75;;;;;;;29.16;31.38;100171.78;5096185;28;20113;-68
2021/06/15 15:05:41;;;;;;;7.32;3.28;;;;;;;29.19;30.69;100173.94;5095410;28;32380;-69
2021/06/15 15:08:07;;;;;;;10.25;3.40;;;;;;;29.15;30.77;100170.94;5095466;28;36419;-68
2021/06/15 15:10:32;;;;;;;9.48;4.45;;;;;;;29.05;30.71;100162.88;5094401;28;22778;-73
2021/06/15 15:12:58;;;;;;;7.20;3.75;;;;;;;28.99;30.35;100170.38;5077554;28;32423;-74
2021/06/15 15:15:23;;;;;;;13.60;4.90;;;;;;;28.95;30.78;100165.75;5095679;28;20039;-74
2021/06/15 15:17:48;;;;;;;9.75;4.63;;;;;;;28.84;30.72;100163.16;5096406;28;20050;-77
2021/06/15 15:20:15;;;;;;;13.57;4.80;;;;;;;28.79;30.42;100162.41;5094837;28;20040;-77
2021/06/15 15:22:42;;;;;;;11.82;4.20;;;;;;;28.69;30.89;100164.16;5095683;28;20044;-74
2021/06/15 15:25:08;;;;;;;7.32;4.03;;;;;;;28.59;30.62;100161.50;5095789;28;20029;-76
2021/06/15 15:27:35;;;;;;;14.25;4.28;;;;;;;28.52;31.04;100152.81;5093654;28;20032;-71
2021/06/15 15:30:01;;;;;;;8.43;3.97;;;;;;;28.61;31.36;100151.06;5093782;28;20048;-72
2021/06/15 15:32:28;;;;;;;9.50;4.15;;;;;;;28.73;31.27;100152.59;5092610;28;26146;-74
2021/06/15 15:34:56;;;;;;;7.43;3.88;;;;;;;28.95;31.44;100161.09;5094059;28;20119;-73
2021/06/15 15:37:21;;;;;;;5.93;3.65;;;;;;;29.12;31.32;100160.59;5093850;28;20017;-73
2021/06/15 15:39:47;;;;;;;7.78;3.75;;;;;;;29.17;30.77;100151.44;5092324;28;20161;-74
2021/06/15 15:42:12;;;;;;;6.90;3.42;;;;;;;29.08;31.02;100156.00;5074690;28;40999;-72
2021/06/15 15:44:38;;;;;;;7.65;3.80;;;;;;;28.99;30.52;100151.16;5074614;28;41506;-73
2021/06/15 15:47:03;;;;;;;6.65;3.60;;;;;;;28.88;30.52;100157.88;5092785;28;20033;-72
2021/06/15 15:49:29;;;;;;;6.85;3.80;;;;;;;28.81;30.83;100146.47;5092573;28;20033;-73
2021/06/15 15:51:54;;;;;;;8.27;3.70;;;;;;;28.70;30.78;100148.50;5093655;28;20038;-73
2021/06/15 15:54:19;;;;;;;8.50;3.95;;;;;;;28.60;30.38;100138.47;5092204;28;20039;-73
2021/06/15 15:56:45;;;;;;;11.38;3.97;;;;;;;28.52;30.77;100147.34;5093276;28;31176;-77
2021/06/15 15:59:11;;;;;;;5.40;3.40;;;;;;;28.42;30.91;100142.78;5091833;28;20377;-73
2021/06/15 16:01:37;;;;;;;7.28;3.88;;;;;;;28.31;30.94;100144.81;5093433;28;20032;-73